Time;durP1;ratioP1;P1;durP2;ratioP2;P2;SDS_P1;SDS_P2;PMS_P1;PMS_P2;Temp;Humidity;BMP_temperature;BMP_pressure;BME280_temperature;BME280_humidity;BME280_pressure;Samples;Min_cycle;Max_cycle;Signal;HPM_P1;HPM_P2
2023/07/21 00:08:55;;;;;;;6.18;3.75;;;13.40;99.90;;;;;;5020303;23;20257;-83
2023/07/21 00:11:21;;;;;;;5.28;3.88;;;13.40;99.90;;;;;;4957573;28;20226;-82
2023/07/21 00:13:46;;;;;;;6.32;4.95;;;13.30;99.90;;;;;;4974385;28;20217;-83
2023/07/21 00:16:12;;;;;;;16.83;4.10;;;13.40;99.90;;;;;;4974624;28;20194;-82
2023/07/21 00:18:40;;;;;;;8.02;3.97;;;13.40;99.90;;;;;;4973086;28;20186;-83
2023/07/21 00:21:06;;;;;;;8.95;4.32;;;13.40;99.90;;;;;;4974345;28;20185;-83
2023/07/21 00:23:31;;;;;;;7.57;4.05;;;13.40;99.90;;;;;;4974568;28;20175;-83
2023/07/21 00:25:58;;;;;;;4.80;3.97;;;13.40;99.90;;;;;;4956779;28;20194;-83
2023/07/21 00:28:26;;;;;;;5.35;4.40;;;13.40;99.90;;;;;;4972283;28;20658;-82
2023/07/21 00:30:52;;;;;;;14.75;4.43;;;13.50;99.90;;;;;;4973942;28;20225;-83
2023/07/21 00:33:17;;;;;;;6.57;4.15;;;13.50;99.90;;;;;;4972853;28;20182;-83
2023/07/21 00:35:43;;;;;;;6.88;4.45;;;13.50;99.90;;;;;;4972793;28;20182;-83
2023/07/21 00:38:10;;;;;;;6.88;4.57;;;13.60;99.90;;;;;;4973146;28;20416;-83
2023/07/21 00:40:39;;;;;;;7.47;4.70;;;13.50;99.90;;;;;;4974314;28;20214;-83
2023/07/21 00:43:06;;;;;;;5.75;4.07;;;13.50;99.90;;;;;;4974252;28;20213;-83
2023/07/21 00:45:37;;;;;;;5.43;4.30;;;13.40;99.90;;;;;;4973163;28;20325;-83
2023/07/21 00:48:10;;;;;;;6.82;4.05;;;13.40;99.90;;;;;;4972946;28;20213;-83
2023/07/21 00:50:47;;;;;;;7.63;4.40;;;13.40;99.90;;;;;;4972702;28;20189;-83
2023/07/21 00:53:14;;;;;;;12.65;4.18;;;13.40;99.90;;;;;;4961328;28;20554;-83
2023/07/21 00:55:45;;;;;;;6.60;4.43;;;13.40;99.90;;;;;;4973874;28;20179;-83
2023/07/21 00:58:11;;;;;;;6.13;4.35;;;13.30;99.90;;;;;;4959560;28;20198;-83
2023/07/21 01:00:43;;;;;;;5.88;3.90;;;13.30;99.90;;;;;;4956436;28;20182;-83
2023/07/21 01:03:11;;;;;;;6.07;4.25;;;13.30;99.90;;;;;;4956591;28;20186;-81
2023/07/21 01:05:41;;;;;;;9.57;4.57;;;13.30;99.90;;;;;;4956722;28;20277;-83
2023/07/21 01:08:08;;;;;;;7.25;4.50;;;13.30;99.90;;;;;;4956163;28;20237;-83
2023/07/21 01:10:35;;;;;;;7.10;5.00;;;13.30;99.90;;;;;;4940695;28;20206;-83
2023/07/21 01:13:01;;;;;;;6.80;4.18;;;13.30;99.90;;;;;;4973696;28;20624;-83
2023/07/21 01:15:29;;;;;;;7.03;4.30;;;13.20;99.90;;;;;;4956256;28;20681;-82
2023/07/21 01:17:57;;;;;;;9.60;4.57;;;13.10;99.90;;;;;;4971263;28;20181;-82
2023/07/21 01:20:24;;;;;;;8.48;3.95;;;13.10;99.90;;;;;;4993125;28;20216;-82
2023/07/21 01:23:06;;;;;;;10.85;4.72;;;13.10;99.90;;;;;;4975736;28;20206;-83
2023/07/21 01:25:33;;;;;;;4.85;4.10;;;13.00;99.90;;;;;;4975885;28;20175;-83
2023/07/21 01:28:01;;;;;;;10.02;4.75;;;13.00;99.90;;;;;;4975477;28;20181;-83
2023/07/21 01:30:28;;;;;;;10.50;4.55;;;13.00;99.90;;;;;;4975632;28;20662;-83
2023/07/21 01:32:55;;;;;;;8.23;4.43;;;12.90;99.90;;;;;;4959329;28;20198;-84
2023/07/21 01:35:22;;;;;;;7.47;4.72;;;13.00;99.90;;;;;;4959950;28;20277;-84
2023/07/21 01:37:49;;;;;;;8.32;4.30;;;13.00;99.90;;;;;;4975266;28;20190;-84
2023/07/21 01:40:16;;;;;;;7.38;4.20;;;13.00;99.90;;;;;;4977489;28;20546;-83
2023/07/21 01:42:44;;;;;;;7.82;4.13;;;13.00;99.90;;;;;;4978816;28;20182;-83
2023/07/21 01:45:10;;;;;;;11.77;5.30;;;13.00;99.90;;;;;;4978628;28;20181;-83
2023/07/21 01:47:36;;;;;;;7.80;4.43;;;13.00;99.90;;;;;;4979132;28;20590;-83
2023/07/21 01:50:06;;;;;;;9.60;5.38;;;13.00;99.90;;;;;;4978772;28;20185;-83
2023/07/21 01:52:34;;;;;;;10.45;5.88;;;13.10;99.90;;;;;;4978799;28;20261;-84
2023/07/21 01:55:22;;;;;;;6.28;4.72;;;13.10;99.90;;;;;;4978717;28;20178;-83
2023/07/21 01:57:57;;;;;;;20.77;5.43;;;13.10;99.90;;;;;;4972126;28;20190;-85
2023/07/21 02:00:32;;;;;;;21.98;5.18;;;13.10;99.90;;;;;;4971170;28;20556;-83
2023/07/21 02:03:00;;;;;;;6.85;4.68;;;13.20;99.90;;;;;;4976387;28;20175;-83
2023/07/21 02:05:26;;;;;;;7.20;5.40;;;13.20;99.90;;;;;;4959333;28;20206;-83
2023/07/21 02:07:53;;;;;;;14.23;5.00;;;13.20;99.90;;;;;;4958745;28;20241;-84
2023/07/21 02:10:18;;;;;;;6.53;4.90;;;13.20;99.90;;;;;;4959336;28;20186;-83
2023/07/21 02:12:44;;;;;;;6.35;4.55;;;13.10;99.90;;;;;;4973246;28;20725;-83
2023/07/21 02:15:10;;;;;;;7.50;4.90;;;13.10;99.90;;;;;;4962229;28;20198;-83
2023/07/21 02:17:36;;;;;;;8.13;5.07;;;13.10;99.90;;;;;;4995965;28;20201;-83
2023/07/21 02:20:08;;;;;;;10.93;4.95;;;13.10;99.90;;;;;;4995489;28;20173;-83
2023/07/21 02:22:39;;;;;;;12.82;4.65;;;13.00;99.90;;;;;;4979494;28;20188;-83
2023/07/21 02:25:07;;;;;;;5.88;4.25;;;13.00;99.90;;;;;;4960273;28;20281;-83
2023/07/21 02:27:33;;;;;;;6.72;4.97;;;12.90;99.90;;;;;;4943220;28;20213;-83
2023/07/21 02:30:00;;;;;;;8.85;4.82;;;12.80;99.90;;;;;;4976236;28;20185;-84
2023/07/21 02:32:28;;;;;;;8.93;4.55;;;12.80;99.90;;;;;;4942810;28;20210;-83
2023/07/21 02:34:54;;;;;;;7.20;4.70;;;12.80;99.90;;;;;;4958681;28;20189;-84
2023/07/21 02:37:19;;;;;;;10.27;4.43;;;12.80;99.90;;;;;;4988540;28;20263;-83
2023/07/21 02:39:45;;;;;;;8.57;4.70;;;12.70;99.90;;;;;;4995607;28;20638;-83
2023/07/21 02:42:11;;;;;;;10.35;4.82;;;12.70;99.90;;;;;;4961831;28;20202;-83
2023/07/21 02:44:36;;;;;;;9.43;5.70;;;12.70;99.90;;;;;;4961890;28;20679;-83
2023/07/21 02:47:02;;;;;;;6.70;4.47;;;12.70;99.90;;;;;;4968588;28;20195;-83
2023/07/21 02:49:30;;;;;;;7.03;5.00;;;12.80;99.90;;;;;;4942657;28;20189;-82
2023/07/21 02:51:56;;;;;;;11.80;5.47;;;12.80;99.90;;;;;;4969372;28;20721;-83
2023/07/21 02:54:21;;;;;;;10.27;5.63;;;12.70;99.90;;;;;;4995080;28;20178;-82
2023/07/21 02:56:47;;;;;;;8.40;5.38;;;12.70;99.90;;;;;;4977833;28;20244;-83
2023/07/21 02:59:14;;;;;;;6.28;4.55;;;12.70;99.90;;;;;;4961400;28;20174;-83
2023/07/21 03:01:40;;;;;;;11.23;5.97;;;12.60;99.90;;;;;;4978048;28;20713;-84
2023/07/21 03:04:07;;;;;;;15.43;5.35;;;12.60;99.90;;;;;;4995015;28;20178;-84
2023/07/21 03:06:32;;;;;;;9.57;5.53;;;12.60;99.90;;;;;;4995168;28;20655;-83
2023/07/21 03:08:58;;;;;;;7.10;5.00;;;12.50;99.90;;;;;;4961007;28;20332;-84
2023/07/21 03:11:24;;;;;;;8.73;5.32;;;12.50;99.90;;;;;;4961582;28;20226;-84
2023/07/21 03:13:50;;;;;;;11.30;6.15;;;12.50;99.90;;;;;;4994967;28;20689;-83
2023/07/21 03:16:16;;;;;;;9.85;5.35;;;12.50;99.90;;;;;;4977187;28;20186;-83
2023/07/21 03:18:42;;;;;;;7.68;5.50;;;12.50;99.90;;;;;;4977889;28;20537;-83
2023/07/21 03:21:07;;;;;;;10.00;5.97;;;12.60;99.90;;;;;;4977213;28;20545;-84
2023/07/21 03:23:33;;;;;;;7.28;5.03;;;12.60;99.90;;;;;;4994931;28;20188;-83
2023/07/21 03:25:59;;;;;;;9.80;5.20;;;12.70;99.90;;;;;;4994473;28;20181;-84
2023/07/21 03:28:25;;;;;;;14.25;5.78;;;12.80;99.90;;;;;;4954043;28;20187;-83
2023/07/21 03:31:01;;;;;;;9.10;5.18;;;12.90;99.90;;;;;;4957793;28;20225;-84
2023/07/21 03:33:27;;;;;;;12.15;5.85;;;13.00;99.90;;;;;;4958159;28;20182;-84
2023/07/21 03:36:04;;;;;;;8.65;5.47;;;13.10;99.90;;;;;;4975522;28;20178;-83
2023/07/21 03:38:33;;;;;;;7.93;5.35;;;13.10;99.90;;;;;;4975264;28;20182;-83
2023/07/21 03:41:07;;;;;;;8.55;5.82;;;13.10;99.90;;;;;;4969230;28;20345;-83
2023/07/21 03:43:35;;;;;;;14.68;5.88;;;13.20;99.90;;;;;;4974906;28;20178;-82
2023/07/21 03:46:02;;;;;;;8.25;5.90;;;13.30;99.90;;;;;;4974885;28;20186;-84
2023/07/21 03:48:29;;;;;;;10.23;5.22;;;13.30;99.90;;;;;;4974985;28;20183;-82
2023/07/21 03:50:59;;;;;;;8.15;5.78;;;13.40;99.90;;;;;;4957356;28;20213;-82
2023/07/21 03:53:26;;;;;;;7.90;5.13;;;13.40;99.90;;;;;;4957244;28;20183;-83
2023/07/21 03:55:52;;;;;;;6.78;4.80;;;13.40;99.90;;;;;;4967749;28;20182;-82
2023/07/21 03:58:17;;;;;;;8.93;4.95;;;13.40;99.90;;;;;;4994522;28;20184;-82
2023/07/21 04:00:43;;;;;;;8.40;4.90;;;13.30;99.90;;;;;;4960954;28;20557;-82
2023/07/21 04:03:09;;;;;;;7.78;5.05;;;13.30;99.90;;;;;;4993537;28;20186;-83
2023/07/21 04:05:35;;;;;;;10.45;5.70;;;13.30;99.90;;;;;;4994379;28;20185;-82
2023/07/21 04:08:02;;;;;;;12.00;5.93;;;13.40;99.90;;;;;;4960308;28;20265;-82
2023/07/21 04:10:29;;;;;;;11.32;5.75;;;13.50;99.90;;;;;;4976501;28;20222;-82
2023/07/21 04:12:55;;;;;;;10.15;5.70;;;13.60;99.90;;;;;;4976398;28;20758;-82
2023/07/21 04:15:21;;;;;;;12.23;5.53;;;13.70;99.90;;;;;;4960342;28;20646;-83
2023/07/21 04:17:47;;;;;;;8.00;5.38;;;13.70;99.90;;;;;;4973096;28;20195;-82
2023/07/21 04:20:13;;;;;;;7.40;5.45;;;13.80;99.90;;;;;;4959170;28;20228;-83
2023/07/21 04:22:39;;;;;;;6.50;4.82;;;13.80;99.90;;;;;;4984572;28;20654;-82
2023/07/21 04:25:05;;;;;;;8.45;5.40;;;13.70;99.90;;;;;;4966607;28;20582;-83
2023/07/21 04:27:31;;;;;;;7.78;5.15;;;13.70;99.90;;;;;;4959631;28;20276;-82
2023/07/21 04:29:56;;;;;;;11.63;5.40;;;13.80;99.90;;;;;;4955080;28;20257;-83
2023/07/21 04:32:23;;;;;;;6.95;5.60;;;13.80;99.90;;;;;;4959457;28;20217;-83
2023/07/21 04:34:48;;;;;;;6.78;4.80;;;13.90;99.90;;;;;;4956975;28;20191;-82
2023/07/21 04:37:14;;;;;;;8.00;5.05;;;13.80;99.90;;;;;;4942430;28;20281;-82
2023/07/21 04:39:40;;;;;;;15.93;5.18;;;13.80;99.90;;;;;;4963164;28;20188;-82
2023/07/21 04:42:06;;;;;;;6.85;5.22;;;13.90;99.90;;;;;;4960325;28;20220;-83
2023/07/21 04:44:32;;;;;;;7.45;5.35;;;14.10;99.90;;;;;;4976201;28;20190;-83
2023/07/21 04:46:57;;;;;;;10.68;5.88;;;14.20;99.90;;;;;;4976676;28;20543;-82
2023/07/21 04:49:23;;;;;;;12.65;6.90;;;14.10;99.90;;;;;;4960718;28;20607;-82
2023/07/21 04:51:49;;;;;;;11.95;6.40;;;14.20;99.90;;;;;;4993807;28;20552;-83
2023/07/21 04:54:15;;;;;;;17.05;7.45;;;14.30;99.90;;;;;;4976902;28;20193;-83
2023/07/21 04:56:42;;;;;;;15.52;7.15;;;14.30;99.90;;;;;;4994137;28;20182;-83
2023/07/21 04:59:08;;;;;;;12.57;6.93;;;14.30;99.90;;;;;;4961341;28;20181;-83
2023/07/21 05:01:34;;;;;;;14.15;6.63;;;14.40;99.90;;;;;;4976696;28;20193;-83
2023/07/21 05:04:00;;;;;;;9.02;5.32;;;14.40;99.90;;;;;;4993658;28;20170;-83
2023/07/21 05:06:26;;;;;;;8.57;5.07;;;14.50;99.90;;;;;;4960219;28;20639;-83
2023/07/21 05:08:51;;;;;;;7.88;5.38;;;14.50;99.90;;;;;;4975988;28;20240;-83
2023/07/21 05:11:17;;;;;;;7.35;5.60;;;14.50;99.90;;;;;;4975951;28;20218;-82
2023/07/21 05:13:45;;;;;;;7.90;4.93;;;14.60;99.90;;;;;;4993569;28;20619;-83
2023/07/21 05:16:11;;;;;;;6.07;5.28;;;14.50;99.90;;;;;;4979968;28;20181;-85
2023/07/21 05:18:37;;;;;;;8.38;5.10;;;14.60;99.90;;;;;;4997543;28;20220;-84
2023/07/21 05:21:03;;;;;;;9.40;5.35;;;14.70;99.90;;;;;;4997263;28;20182;-84
2023/07/21 05:23:29;;;;;;;7.57;5.80;;;14.80;99.90;;;;;;4976804;28;20722;-85
2023/07/21 05:26:00;;;;;;;7.40;4.65;;;15.00;99.90;;;;;;4975265;28;20600;-83
2023/07/21 05:28:26;;;;;;;6.50;4.65;;;15.00;99.90;;;;;;4966979;28;20300;-83
2023/07/21 05:30:52;;;;;;;7.38;5.00;;;15.00;99.90;;;;;;4978956;28;20209;-82
2023/07/21 05:33:18;;;;;;;6.30;5.18;;;14.90;99.90;;;;;;4979313;28;20217;-82
2023/07/21 05:35:43;;;;;;;13.00;5.15;;;14.90;99.90;;;;;;4962946;28;20278;-83
2023/07/21 05:38:10;;;;;;;7.15;5.25;;;15.00;99.90;;;;;;4962865;28;20220;-83
2023/07/21 05:40:36;;;;;;;8.70;4.93;;;15.10;99.90;;;;;;4962971;28;20603;-84
2023/07/21 05:43:03;;;;;;;6.55;4.60;;;15.10;99.90;;;;;;4979200;28;20209;-83
2023/07/21 05:45:28;;;;;;;12.00;5.38;;;15.10;99.90;;;;;;4996337;28;20180;-83
2023/07/21 05:47:55;;;;;;;14.88;7.70;;;15.10;99.90;;;;;;4978829;28;20548;-84
2023/07/21 05:50:21;;;;;;;9.40;6.00;;;15.10;99.90;;;;;;4996276;28;20174;-85
2023/07/21 05:52:53;;;;;;;7.60;5.13;;;15.20;99.90;;;;;;4978707;28;20218;-84
2023/07/21 05:55:19;;;;;;;7.43;5.40;;;15.30;99.90;;;;;;4996357;28;20174;-85
2023/07/21 05:57:45;;;;;;;11.38;6.30;;;15.30;99.90;;;;;;4962715;28;20557;-84
2023/07/21 06:00:15;;;;;;;7.75;5.82;;;15.30;99.90;;;;;;4962623;28;20193;-84
2023/07/21 06:02:41;;;;;;;10.68;6.20;;;15.20;99.90;;;;;;4979316;28;20194;-84
2023/07/21 06:05:08;;;;;;;6.82;4.85;;;15.20;99.90;;;;;;4978603;28;20187;-84
2023/07/21 06:07:34;;;;;;;9.68;5.45;;;15.20;99.90;;;;;;4946340;28;20722;-84
2023/07/21 06:09:59;;;;;;;8.20;6.43;;;15.30;99.90;;;;;;4979012;28;20185;-85
2023/07/21 06:12:25;;;;;;;10.18;7.43;;;15.40;99.90;;;;;;4946335;28;20221;-84
2023/07/21 06:14:50;;;;;;;9.13;5.78;;;15.60;99.90;;;;;;4987488;28;20205;-83
2023/07/21 06:17:19;;;;;;;10.05;6.25;;;15.80;99.90;;;;;;4993993;28;20182;-84
2023/07/21 06:19:47;;;;;;;9.27;6.82;;;15.70;99.90;;;;;;4995612;28;20631;-83
2023/07/21 06:22:13;;;;;;;7.72;5.55;;;15.60;99.90;;;;;;4995490;28;20224;-82
2023/07/21 06:24:39;;;;;;;11.90;5.88;;;15.70;99.90;;;;;;4994646;28;20662;-83
2023/07/21 06:27:05;;;;;;;8.07;5.60;;;15.70;99.90;;;;;;4994488;28;20186;-82
2023/07/21 06:29:33;;;;;;;6.50;4.53;;;15.90;99.90;;;;;;4988782;28;20236;-82
2023/07/21 06:31:58;;;;;;;5.30;4.80;;;16.00;99.90;;;;;;4961383;28;20287;-82
2023/07/21 06:34:24;;;;;;;10.95;5.10;;;16.00;99.90;;;;;;4994888;28;20670;-82
2023/07/21 06:36:50;;;;;;;6.18;4.88;;;16.10;99.90;;;;;;4961834;28;20240;-82
2023/07/21 06:39:16;;;;;;;11.27;4.90;;;16.00;99.90;;;;;;4961918;28;20182;-82
2023/07/21 06:41:43;;;;;;;6.80;4.70;;;16.00;99.90;;;;;;4994978;28;20182;-82
2023/07/21 06:44:08;;;;;;;6.82;4.85;;;16.20;99.90;;;;;;4995297;28;20182;-83
2023/07/21 06:46:34;;;;;;;6.50;4.35;;;16.20;99.90;;;;;;4978136;28;20182;-82
2023/07/21 06:49:00;;;;;;;5.95;4.68;;;16.30;99.90;;;;;;4994992;28;20174;-82
2023/07/21 06:51:25;;;;;;;6.57;4.20;;;16.60;99.90;;;;;;4977730;28;20226;-82
2023/07/21 06:53:51;;;;;;;4.97;4.25;;;16.80;99.90;;;;;;4977716;28;20178;-83
2023/07/21 06:56:17;;;;;;;3.15;2.72;;;17.00;99.90;;;;;;4961508;28;20785;-83
2023/07/21 06:58:43;;;;;;;4.50;2.60;;;17.10;99.90;;;;;;4977540;28;20182;-82
2023/07/21 07:01:09;;;;;;;2.95;2.13;;;17.00;99.90;;;;;;4977607;28;20186;-82
2023/07/21 07:03:35;;;;;;;2.42;2.20;;;16.90;99.90;;;;;;4995023;28;20197;-83
2023/07/21 07:06:01;;;;;;;4.32;2.85;;;17.00;99.90;;;;;;4977514;28;20269;-83
2023/07/21 07:08:26;;;;;;;6.10;3.00;;;17.20;99.90;;;;;;4961150;28;20683;-83
2023/07/21 07:10:52;;;;;;;3.60;2.55;;;17.40;99.90;;;;;;4961252;28;20174;-82
2023/07/21 07:13:18;;;;;;;3.75;3.33;;;17.60;99.90;;;;;;4961244;28;20205;-82
2023/07/21 07:15:50;;;;;;;7.30;3.63;;;17.60;99.90;;;;;;4994640;28;20177;-82
2023/07/21 07:18:16;;;;;;;6.72;3.35;;;17.70;99.90;;;;;;4976368;28;20178;-84
2023/07/21 07:20:50;;;;;;;3.72;2.97;;;17.80;99.90;;;;;;4967096;28;20660;-84
2023/07/21 07:23:16;;;;;;;3.65;2.78;;;18.00;99.90;;;;;;4966283;28;20257;-84
2023/07/21 07:25:47;;;;;;;3.20;2.38;;;18.20;99.90;;;;;;4967255;28;20212;-83
2023/07/21 07:28:13;;;;;;;3.28;2.47;;;18.50;99.90;;;;;;4985131;28;20240;-82
2023/07/21 07:30:39;;;;;;;5.22;2.55;;;18.80;99.90;;;;;;4976610;28;20177;-84
2023/07/21 07:33:05;;;;;;;3.88;2.60;;;18.90;99.90;;;;;;4958064;28;20229;-83
2023/07/21 07:35:31;;;;;;;2.67;2.22;;;19.10;99.90;;;;;;4961103;28;20221;-83
2023/07/21 07:37:56;;;;;;;2.13;1.92;;;19.10;99.90;;;;;;4968205;28;20738;-83
2023/07/21 07:40:22;;;;;;;2.20;2.00;;;19.10;99.90;;;;;;4957140;28;20682;-83
2023/07/21 07:42:48;;;;;;;2.05;1.75;;;19.10;99.90;;;;;;4966539;28;20832;-84
2023/07/21 07:45:14;;;;;;;2.28;1.95;;;19.00;99.90;;;;;;4982642;28;20690;-83
2023/07/21 07:47:42;;;;;;;2.10;1.90;;;18.80;99.90;;;;;;4953713;28;20194;-83
2023/07/21 07:50:10;;;;;;;1.55;1.45;;;18.70;99.90;;;;;;4954325;28;20305;-83
2023/07/21 07:52:36;;;;;;;4.13;1.92;;;18.70;99.90;;;;;;4973408;28;20214;-83
2023/07/21 07:55:03;;;;;;;1.77;1.30;;;18.80;99.90;;;;;;4966937;28;20232;-84
2023/07/21 07:57:28;;;;;;;1.45;1.30;;;18.70;99.90;;;;;;4958275;28;20247;-84
2023/07/21 07:59:55;;;;;;;1.60;1.50;;;18.70;99.90;;;;;;4957328;28;20634;-83
2023/07/21 08:02:22;;;;;;;3.10;1.67;;;18.80;99.90;;;;;;4971574;28;20307;-84
2023/07/21 08:04:48;;;;;;;2.17;1.70;;;18.90;99.90;;;;;;4965195;28;20520;-83
2023/07/21 08:07:14;;;;;;;4.13;1.50;;;19.10;99.90;;;;;;4976948;28;20247;-82
2023/07/21 08:09:39;;;;;;;1.50;1.33;;;19.10;99.90;;;;;;4969191;28;20186;-83
2023/07/21 08:12:05;;;;;;;1.58;1.20;;;19.20;99.90;;;;;;4984578;28;20214;-84
2023/07/21 08:14:31;;;;;;;1.55;1.45;;;19.20;99.90;;;;;;4961156;28;20186;-84
2023/07/21 08:17:00;;;;;;;1.67;1.30;;;19.40;99.90;;;;;;4973818;28;20264;-83
2023/07/21 08:19:25;;;;;;;1.67;1.35;;;19.50;99.90;;;;;;4984652;28;20190;-84
2023/07/21 08:21:51;;;;;;;4.15;1.40;;;19.70;99.90;;;;;;4958957;28;20186;-84
2023/07/21 08:24:17;;;;;;;1.30;1.17;;;19.70;99.90;;;;;;4973315;28;20182;-87
2023/07/21 08:26:42;;;;;;;1.75;1.20;;;19.80;99.90;;;;;;4944248;28;20611;-84
2023/07/21 08:29:09;;;;;;;2.78;1.15;;;19.80;99.90;;;;;;4976050;28;20216;-83
2023/07/21 08:31:35;;;;;;;1.83;1.30;;;19.70;99.90;;;;;;4959993;28;20214;-84
2023/07/21 08:34:01;;;;;;;1.30;1.20;;;19.70;99.90;;;;;;4993387;28;20190;-82
2023/07/21 08:36:26;;;;;;;4.32;1.20;;;19.70;99.90;;;;;;4976192;28;20185;-81
2023/07/21 08:38:52;;;;;;;1.30;1.20;;;19.70;99.90;;;;;;4976162;28;20189;-83
2023/07/21 08:41:20;;;;;;;3.08;1.23;;;19.70;99.90;;;;;;4959693;28;20190;-84
2023/07/21 08:43:49;;;;;;;2.92;1.50;;;19.70;99.90;;;;;;4993135;28;20190;-82
2023/07/21 08:46:15;;;;;;;1.45;1.33;;;19.70;99.90;;;;;;4976154;28;20174;-82
2023/07/21 08:48:41;;;;;;;1.65;1.50;;;19.70;99.90;;;;;;4993375;28;20178;-82
2023/07/21 08:51:07;;;;;;;1.83;1.70;;;19.90;99.90;;;;;;4996901;28;20236;-82
2023/07/21 08:53:33;;;;;;;3.38;1.52;;;20.00;99.90;;;;;;4979778;28;20186;-82
2023/07/21 08:56:00;;;;;;;1.50;1.40;;;20.20;99.90;;;;;;4979698;28;20178;-82
2023/07/21 08:58:28;;;;;;;2.38;1.60;;;20.40;99.90;;;;;;4997129;28;20188;-82
2023/07/21 09:00:54;;;;;;;1.35;1.25;;;20.50;99.90;;;;;;4997244;28;20174;-82
2023/07/21 09:03:25;;;;;;;4.47;1.60;;;20.60;99.90;;;;;;4997113;28;20701;-82
2023/07/21 09:05:51;;;;;;;5.45;1.52;;;20.70;99.90;;;;;;4979298;28;20658;-83
2023/07/21 09:08:27;;;;;;;3.05;1.13;;;20.70;99.90;;;;;;4997219;28;20721;-83
2023/07/21 09:10:58;;;;;;;3.08;1.40;;;20.60;99.90;;;;;;4979319;28;20174;-83
2023/07/21 09:13:25;;;;;;;1.50;1.40;;;20.80;99.90;;;;;;4966007;28;20186;-83
2023/07/21 09:15:53;;;;;;;1.50;1.40;;;20.80;99.90;;;;;;4990764;28;20182;-83
2023/07/21 09:18:24;;;;;;;1.63;1.52;;;20.80;99.90;;;;;;4996505;28;20173;-85
2023/07/21 09:20:50;;;;;;;1.63;1.38;;;20.60;99.90;;;;;;4996547;28;20182;-83
2023/07/21 09:23:19;;;;;;;3.42;1.70;;;20.70;99.90;;;;;;4947201;28;20185;-83
2023/07/21 09:25:49;;;;;;;3.15;1.40;;;20.90;99.90;;;;;;4991239;28;20177;-83
2023/07/21 09:28:14;;;;;;;1.80;1.50;;;21.00;99.90;;;;;;4996274;28;20180;-82
2023/07/21 09:30:51;;;;;;;1.30;1.20;;;20.80;99.90;;;;;;4995541;28;20182;-82
2023/07/21 09:33:24;;;;;;;1.80;1.40;;;20.80;99.90;;;;;;4995136;28;20208;-82
2023/07/21 09:36:02;;;;;;;1.40;1.30;;;21.00;99.90;;;;;;4996327;28;20170;-83
2023/07/21 09:38:28;;;;;;;1.80;1.40;;;21.40;99.90;;;;;;4996396;28;20188;-82
2023/07/21 09:41:03;;;;;;;1.60;1.42;;;21.70;99.90;;;;;;4979105;28;20182;-82
2023/07/21 09:43:30;;;;;;;5.53;1.52;;;21.60;99.90;;;;;;4995000;28;20207;-83
2023/07/21 09:46:00;;;;;;;1.88;1.60;;;21.50;99.90;;;;;;4996301;28;20651;-82
2023/07/21 09:48:27;;;;;;;2.85;1.30;;;21.40;99.90;;;;;;4994816;28;20182;-83
2023/07/21 09:50:56;;;;;;;2.25;1.38;;;21.40;99.90;;;;;;4996286;28;20170;-83
2023/07/21 09:53:25;;;;;;;3.70;1.48;;;21.60;99.90;;;;;;4996247;28;20232;-83
2023/07/21 09:55:53;;;;;;;1.98;1.70;;;21.70;99.90;;;;;;4994915;28;20228;-83
2023/07/21 09:58:24;;;;;;;4.55;2.80;;;21.70;99.90;;;;;;4978875;28;20193;-83
2023/07/21 10:00:53;;;;;;;1.55;1.40;;;21.60;99.90;;;;;;4995893;28;20216;-82
2023/07/21 10:03:21;;;;;;;3.25;1.63;;;21.50;99.90;;;;;;4996760;28;20178;-83
2023/07/21 10:05:48;;;;;;;4.72;1.50;;;21.40;99.90;;;;;;4996645;28;20549;-83
2023/07/21 10:08:15;;;;;;;5.18;2.00;;;21.30;99.90;;;;;;4974007;28;20230;-83
2023/07/21 10:10:42;;;;;;;2.70;1.77;;;21.20;99.90;;;;;;4985849;28;20170;-83
2023/07/21 10:13:08;;;;;;;2.08;1.65;;;20.90;99.90;;;;;;4955367;28;20222;-82
2023/07/21 10:15:35;;;;;;;2.58;1.30;;;20.50;99.90;;;;;;4974820;28;20197;-82
2023/07/21 10:18:06;;;;;;;2.10;1.80;;;20.30;99.90;;;;;;4962301;28;20708;-82
2023/07/21 10:20:50;;;;;;;1.65;1.55;;;20.00;99.90;;;;;;4994367;28;20178;-83
2023/07/21 10:23:18;;;;;;;1.92;1.70;;;19.90;99.90;;;;;;4994988;28;20185;-82
2023/07/21 10:26:03;;;;;;;1.92;1.60;;;19.70;99.90;;;;;;4994588;28;20170;-86
2023/07/21 10:28:34;;;;;;;1.38;1.27;;;19.40;99.90;;;;;;4987245;28;20193;-83
2023/07/21 10:31:23;;;;;;;1.98;1.77;;;19.30;99.90;;;;;;4980403;28;20184;-84
2023/07/21 10:34:11;;;;;;;2.08;1.70;;;19.10;99.90;;;;;;4960397;28;20255;-82
2023/07/21 10:36:47;;;;;;;3.15;1.70;;;19.00;99.90;;;;;;4985938;28;20663;-83
2023/07/21 10:39:16;;;;;;;3.95;2.08;;;18.90;99.90;;;;;;4958689;28;20217;-83
2023/07/21 10:41:43;;;;;;;1.75;1.50;;;18.90;99.90;;;;;;4975831;28;20225;-83
2023/07/21 10:44:11;;;;;;;2.22;1.85;;;18.90;99.90;;;;;;4961543;28;20232;-83
2023/07/21 10:46:38;;;;;;;2.70;1.70;;;19.00;99.90;;;;;;4986284;28;20206;-84
2023/07/21 10:49:05;;;;;;;5.30;2.20;;;19.00;99.90;;;;;;4986875;28;20187;-82
2023/07/21 10:51:31;;;;;;;4.00;2.17;;;19.10;99.90;;;;;;4983985;28;20198;-83
2023/07/21 10:53:56;;;;;;;2.15;1.60;;;19.10;99.90;;;;;;4985455;28;20186;-85
2023/07/21 10:56:22;;;;;;;3.78;2.13;;;19.20;99.90;;;;;;4967601;28;20719;-83
2023/07/21 10:58:52;;;;;;;2.80;1.90;;;19.40;99.90;;;;;;4950406;28;20655;-83
2023/07/21 11:01:22;;;;;;;2.17;1.42;;;19.60;99.90;;;;;;4960821;28;20181;-84
2023/07/21 11:03:48;;;;;;;3.72;1.65;;;19.90;99.90;;;;;;4966378;28;20281;-84
2023/07/21 11:06:14;;;;;;;7.70;1.70;;;20.30;99.90;;;;;;4958365;28;20186;-83
2023/07/21 11:08:40;;;;;;;1.88;1.45;;;20.50;99.90;;;;;;4951240;28;20234;-84
2023/07/21 11:11:07;;;;;;;2.22;1.25;;;20.80;99.90;;;;;;4984913;28;20198;-83
2023/07/21 11:13:33;;;;;;;1.48;1.25;;;21.10;99.90;;;;;;4957481;28;20536;-84
2023/07/21 11:16:00;;;;;;;2.67;2.00;;;21.60;99.90;;;;;;4969215;28;20185;-84
2023/07/21 11:18:28;;;;;;;1.40;1.20;;;21.70;99.90;;;;;;4984546;28;20272;-84
2023/07/21 11:20:55;;;;;;;1.45;1.13;;;21.80;99.90;;;;;;4984074;28;20189;-83
2023/07/21 11:23:21;;;;;;;2.17;1.33;;;21.70;99.90;;;;;;4992345;28;20204;-82
2023/07/21 11:26:10;;;;;;;1.20;1.10;;;21.70;99.90;;;;;;4994469;28;20218;-82
2023/07/21 11:28:38;;;;;;;2.30;1.40;;;21.80;99.90;;;;;;4961204;28;20190;-82
2023/07/21 11:31:12;;;;;;;1.63;1.40;;;21.60;99.90;;;;;;4941608;28;20197;-81
2023/07/21 11:33:47;;;;;;;1.20;1.10;;;21.70;99.90;;;;;;4982065;28;20193;-82
2023/07/21 11:36:13;;;;;;;2.78;1.30;;;21.50;99.90;;;;;;4994491;28;20165;-82
2023/07/21 11:38:38;;;;;;;2.03;1.40;;;21.40;99.90;;;;;;4993705;28;20205;-83
2023/07/21 11:41:07;;;;;;;2.63;1.30;;;21.30;99.90;;;;;;4956481;28;20554;-82
2023/07/21 11:43:47;;;;;;;1.75;1.40;;;21.20;99.90;;;;;;4958145;28;20183;-81
2023/07/21 11:46:25;;;;;;;1.70;1.10;;;21.10;99.90;;;;;;4975058;28;20174;-82
2023/07/21 11:48:51;;;;;;;2.45;1.50;;;21.00;99.90;;;;;;4957385;28;20193;-82
2023/07/21 11:51:17;;;;;;;1.65;1.55;;;21.20;99.90;;;;;;4957284;28;20217;-83
2023/07/21 11:53:45;;;;;;;1.60;1.40;;;21.50;99.90;;;;;;4956980;28;20187;-83
2023/07/21 11:56:11;;;;;;;1.33;1.23;;;21.90;99.90;;;;;;4963797;28;20250;-83
2023/07/21 11:58:37;;;;;;;1.67;1.27;;;22.10;99.90;;;;;;4976612;28;20526;-83
2023/07/21 12:01:07;;;;;;;2.22;1.67;;;22.00;99.90;;;;;;4976351;28;20178;-83
2023/07/21 12:03:35;;;;;;;1.88;1.60;;;22.00;99.90;;;;;;4993168;28;20261;-82
2023/07/21 12:06:04;;;;;;;2.92;1.67;;;22.10;99.90;;;;;;4975606;28;20540;-85
2023/07/21 12:08:30;;;;;;;2.67;1.77;;;21.90;99.90;;;;;;4960438;28;20262;-85
2023/07/21 12:10:57;;;;;;;3.03;1.80;;;22.00;99.90;;;;;;4976702;28;20213;-83
2023/07/21 12:13:24;;;;;;;2.33;1.88;;;22.40;99.90;;;;;;4976513;28;20240;-84
2023/07/21 12:15:50;;;;;;;3.55;2.10;;;22.20;99.90;;;;;;4960210;28;20178;-86
2023/07/21 12:18:16;;;;;;;8.55;2.65;;;22.30;99.90;;;;;;4943636;28;20190;-86
2023/07/21 12:20:41;;;;;;;14.75;3.20;;;22.20;99.90;;;;;;4993079;28;20540;-87
2023/07/21 12:23:08;;;;;;;2.67;2.30;;;22.10;99.90;;;;;;4975573;28;20239;-85
2023/07/21 12:25:34;;;;;;;3.13;2.83;;;21.90;99.90;;;;;;4975524;28;20181;-83
2023/07/21 12:28:00;;;;;;;4.53;2.40;;;21.90;99.90;;;;;;4992965;28;20229;-82
2023/07/21 12:30:27;;;;;;;2.00;1.80;;;21.70;99.90;;;;;;4967095;28;20193;-85
2023/07/21 12:32:53;;;;;;;2.63;1.70;;;21.50;99.90;;;;;;4961121;28;20566;-84
2023/07/21 12:35:18;;;;;;;3.08;2.42;;;21.50;99.90;;;;;;4954928;28;20208;-83
2023/07/21 12:37:45;;;;;;;2.40;2.20;;;21.50;99.90;;;;;;4964779;28;20201;-83
2023/07/21 12:40:14;;;;;;;2.40;2.20;;;21.40;99.90;;;;;;4974304;28;20275;-82
2023/07/21 12:42:40;;;;;;;2.75;2.00;;;21.20;99.90;;;;;;4943368;28;20654;-83
2023/07/21 12:45:06;;;;;;;2.95;2.45;;;21.10;99.90;;;;;;4971539;28;20272;-83
2023/07/21 12:47:33;;;;;;;2.30;2.03;;;21.00;99.90;;;;;;4972427;28;20181;-82
2023/07/21 12:49:59;;;;;;;2.80;2.50;;;21.00;99.90;;;;;;4972059;28;20178;-84
2023/07/21 12:52:25;;;;;;;4.03;2.63;;;20.90;99.90;;;;;;4923305;28;20240;-83
2023/07/21 12:54:51;;;;;;;5.07;3.75;;;20.80;99.90;;;;;;4950309;28;20207;-82